Time;durP1;ratioP1;P1;durP2;ratioP2;P2;SDS_P1;SDS_P2;PMS_P1;PMS_P2;Temp;Humidity;BMP_temperature;BMP_pressure;BME280_temperature;BME280_humidity;BME280_pressure;Samples;Min_cycle;Max_cycle;Signal;HPM_P1;HPM_P2
2022/06/18 00:00:41;;;;;;;5.35;2.47;;;;;;;-145.69;69.64;71334.75;4997393;28;20264;-78
2022/06/18 00:03:09;;;;;;;2.83;2.03;;;;;;;-145.69;71.39;71346.69;4997522;28;20206;-78
2022/06/18 00:05:37;;;;;;;2.50;2.00;;;;;;;-145.69;70.04;71342.69;4997186;28;20233;-77
2022/06/18 00:08:07;;;;;;;2.35;1.85;;;;;;;-145.69;70.19;71334.75;4997251;28;20202;-78
2022/06/18 00:10:34;;;;;;;5.57;2.35;;;;;;;-145.69;70.50;71350.66;4997335;28;20197;-78
2022/06/18 00:15:58;;;;;;;3.13;1.95;;;;;;;-145.69;69.02;71336.72;4997209;28;20248;-77
2022/06/18 00:18:25;;;;;;;4.38;2.10;;;;;;;-145.69;70.02;71346.69;4997165;28;20198;-77
2022/06/18 00:20:53;;;;;;;2.55;1.90;;;;;;;-145.69;68.29;71344.69;4996861;28;20320;-78
2022/06/18 00:23:20;;;;;;;2.63;1.58;;;;;;;-145.69;64.76;71310.84;4997163;28;20247;-78
2022/06/18 00:25:50;;;;;;;5.65;2.85;;;;;;;-145.69;65.18;71302.91;4997079;28;20205;-78
2022/06/18 00:28:20;;;;;;;3.75;1.90;;;;;;;-145.69;63.31;71286.97;4996990;28;20205;-77
2022/06/18 00:30:47;;;;;;;5.30;1.70;;;;;;;-145.69;64.99;71302.91;4996798;28;20469;-77
2022/06/18 00:33:14;;;;;;;2.03;1.77;;;;;;;-145.69;65.88;71318.81;4996999;28;20205;-78
2022/06/18 00:35:41;;;;;;;4.45;1.65;;;;;;;-145.69;67.50;71346.69;4996721;28;20555;-78
2022/06/18 00:38:15;;;;;;;7.20;1.60;;;;;;;-145.69;68.01;71354.63;4996941;28;20545;-78
2022/06/18 00:40:43;;;;;;;2.58;1.63;;;;;;;-145.69;64.98;71324.78;4996619;28;20233;-78
2022/06/18 00:43:15;;;;;;;2.75;1.80;;;;;;;-145.69;66.33;71326.78;4996663;28;20209;-77
2022/06/18 00:45:42;;;;;;;5.07;1.70;;;;;;;-145.69;66.11;71334.75;4996251;28;20653;-79
2022/06/18 00:48:15;;;;;;;2.90;1.90;;;;;;;-145.69;71.79;71364.59;4996490;28;20233;-79
2022/06/18 00:50:48;;;;;;;2.55;1.92;;;;;;;-145.69;77.54;71440.19;4996375;28;20198;-78
2022/06/18 00:53:18;;;;;;;2.42;1.60;;;;;;;-145.69;77.58;71468.06;4995543;28;20252;-78
2022/06/18 00:55:51;;;;;;;5.63;1.85;;;;;;;-145.69;73.87;71468.06;4996330;28;20206;-77
2022/06/18 00:58:21;;;;;;;5.55;1.58;;;;;;;-145.69;69.64;71414.34;4996557;28;20726;-77
2022/06/18 01:00:50;;;;;;;3.53;1.75;;;;;;;-145.69;69.53;71404.38;4996362;28;20283;-78
2022/06/18 01:03:26;;;;;;;3.33;1.50;;;;;;;-145.69;68.67;71406.38;4996358;28;20279;-78
2022/06/18 01:05:54;;;;;;;2.83;2.15;;;;;;;-145.69;66.11;71380.50;4995924;28;20251;-78
2022/06/18 01:08:25;;;;;;;4.50;1.73;;;;;;;-145.69;66.41;71370.56;4996097;28;20665;-77
2022/06/18 01:10:55;;;;;;;2.47;1.65;;;;;;;-145.69;67.87;71392.44;4995311;28;20194;-78
2022/06/18 01:13:26;;;;;;;2.53;1.70;;;;;;;-145.69;67.69;71392.44;4976493;28;20210;-77
2022/06/18 01:15:55;;;;;;;6.43;1.90;;;;;;;-145.69;69.42;71414.34;4976590;28;20469;-78
2022/06/18 01:18:21;;;;;;;2.42;1.60;;;;;;;-145.69;69.39;71418.31;4976620;28;20301;-78
2022/06/18 01:20:52;;;;;;;4.63;1.63;;;;;;;-145.69;70.22;71438.22;4987117;28;20299;-78
2022/06/18 01:23:34;;;;;;;3.55;1.75;;;;;;;-145.69;70.36;71436.22;4995194;28;20201;-78
2022/06/18 01:26:02;;;;;;;3.60;1.88;;;;;;;-145.69;68.77;71432.25;4995215;28;20252;-78
2022/06/18 01:28:29;;;;;;;3.78;1.75;;;;;;;-145.69;72.76;71454.13;4995880;28;20697;-79
2022/06/18 01:30:55;;;;;;;2.30;1.33;;;;;;;-145.69;71.37;71462.09;4995020;28;20208;-78
2022/06/18 01:33:22;;;;;;;2.83;1.75;;;;;;;-145.69;73.89;71482.00;4995780;28;20297;-78
2022/06/18 01:35:52;;;;;;;2.00;1.52;;;;;;;-145.69;70.33;71482.00;4996014;28;20620;-77
2022/06/18 01:38:20;;;;;;;4.10;2.00;;;;;;;-145.69;71.32;71458.09;4995731;28;20205;-77
2022/06/18 01:40:52;;;;;;;2.42;1.67;;;;;;;-145.69;74.09;71476.03;4995627;28;20328;-78
2022/06/18 01:43:23;;;;;;;3.80;1.60;;;;;;;-145.69;74.27;71493.94;4995564;28;20206;-77
2022/06/18 01:45:56;;;;;;;3.38;1.60;;;;;;;-145.69;71.08;71485.97;4995023;28;20197;-78
2022/06/18 01:48:26;;;;;;;2.28;1.52;;;;;;;-145.69;72.09;71476.03;4995335;28;20758;-79
2022/06/18 01:50:57;;;;;;;1.83;1.63;;;;;;;-145.69;73.00;71483.97;4994927;28;20755;-78
2022/06/18 01:53:26;;;;;;;2.30;1.80;;;;;;;-145.69;72.03;71483.97;4995101;28;20738;-79
2022/06/18 01:55:57;;;;;;;2.47;1.40;;;;;;;-145.69;72.66;71480.00;4994546;28;20284;-78
2022/06/18 01:58:31;;;;;;;5.75;1.70;;;;;;;-145.69;73.38;71480.00;4975402;28;20759;-77
2022/06/18 02:01:00;;;;;;;2.08;1.80;;;;;;;-145.69;73.49;71489.94;4975709;28;20229;-77
2022/06/18 02:03:26;;;;;;;4.47;1.75;;;;;;;-145.69;74.19;71495.91;4974774;28;20213;-77
2022/06/18 02:05:53;;;;;;;2.45;1.65;;;;;;;-145.69;75.73;71501.88;4983841;28;20215;-78
2022/06/18 02:08:20;;;;;;;4.20;1.70;;;;;;;-145.69;75.44;71509.84;4994949;28;20210;-78
2022/06/18 02:10:54;;;;;;;3.90;1.60;;;;;;;-145.69;75.06;71505.88;4994784;28;20201;-77
2022/06/18 02:13:23;;;;;;;3.75;1.40;;;;;;;-145.69;74.73;71513.81;4995036;28;20210;-78
2022/06/18 02:15:53;;;;;;;1.50;1.38;;;;;;;-145.69;74.81;71509.84;4994908;28;20206;-77
2022/06/18 02:18:20;;;;;;;5.05;1.50;;;;;;;-145.69;72.90;71501.88;4994773;28;20205;-78
2022/06/18 02:20:51;;;;;;;2.47;1.70;;;;;;;-145.69;74.78;71507.84;4994938;28;20229;-78
2022/06/18 02:23:19;;;;;;;2.45;1.45;;;;;;;-145.69;74.08;71509.84;4994551;28;20676;-77
2022/06/18 02:25:46;;;;;;;2.42;1.77;;;;;;;-145.69;73.88;71509.84;4994209;28;20542;-77
2022/06/18 02:28:21;;;;;;;2.15;1.50;;;;;;;-145.69;74.43;71511.84;4994719;28;20240;-77
2022/06/18 02:30:48;;;;;;;3.85;1.70;;;;;;;-145.69;75.89;71525.78;4994490;28;20660;-77
2022/06/18 02:33:31;;;;;;;2.10;1.50;;;;;;;-145.69;75.60;71525.78;4994522;28;20205;-78
2022/06/18 02:36:01;;;;;;;1.65;1.45;;;;;;;-145.69;76.27;71535.72;4994714;28;20240;-78
2022/06/18 02:38:30;;;;;;;2.15;1.58;;;;;;;-145.69;75.38;71521.78;4994518;28;20197;-78
2022/06/18 02:40:56;;;;;;;1.58;1.42;;;;;;;-145.69;75.73;71525.78;4994132;28;20221;-77
2022/06/18 02:43:23;;;;;;;1.40;1.30;;;;;;;-145.69;74.78;71521.78;4994496;28;20202;-77
2022/06/18 02:45:52;;;;;;;2.20;1.48;;;;;;;-145.69;75.61;71521.78;4994162;28;20198;-77
2022/06/18 02:48:24;;;;;;;2.63;1.58;;;;;;;-145.69;74.61;71521.78;4994117;28;20234;-77
2022/06/18 02:50:50;;;;;;;3.63;1.63;;;;;;;-145.69;73.86;71513.81;4993395;28;20436;-78
2022/06/18 02:53:17;;;;;;;3.85;1.42;;;;;;;-145.69;73.80;71509.84;4994319;28;20201;-78
2022/06/18 02:55:46;;;;;;;4.25;1.63;;;;;;;-145.69;72.87;71501.88;4994308;28;20333;-78
2022/06/18 02:58:17;;;;;;;2.92;1.60;;;;;;;-145.69;71.42;71474.03;4993903;28;20447;-78
2022/06/18 03:00:46;;;;;;;2.25;1.60;;;;;;;-145.69;71.39;71468.06;4993531;28;20325;-77
2022/06/18 03:03:16;;;;;;;4.03;1.30;;;;;;;-145.69;72.37;71485.97;4994246;28;20205;-78
2022/06/18 03:05:44;;;;;;;4.85;1.80;;;;;;;-145.69;73.13;71497.91;4994032;28;20201;-78
2022/06/18 03:08:11;;;;;;;4.10;1.67;;;;;;;-145.69;74.54;71509.84;4993454;28;20255;-78
2022/06/18 03:13:22;;;;;;;2.83;1.23;;;;;;;-145.69;76.26;71539.69;4993851;28;20197;-78
2022/06/18 03:15:50;;;;;;;2.38;1.50;;;;;;;-145.69;77.04;71545.66;4993762;28;20246;-78
2022/06/18 03:18:19;;;;;;;2.72;1.50;;;;;;;-145.69;75.56;71541.69;4993769;28;20722;-78
2022/06/18 03:20:58;;;;;;;3.63;1.60;;;;;;;-145.69;75.62;71527.75;4993453;28;20229;-78
2022/06/18 03:23:25;;;;;;;3.92;1.90;;;;;;;-145.69;75.92;71527.75;4993721;28;20726;-78
2022/06/18 03:25:52;;;;;;;1.52;1.30;;;;;;;-145.69;74.97;71515.81;4993609;28;20247;-78
2022/06/18 03:28:21;;;;;;;3.38;1.90;;;;;;;-145.69;75.25;71525.78;4993842;28;20205;-78
2022/06/18 03:30:48;;;;;;;2.72;1.48;;;;;;;-145.69;75.84;71525.78;4993561;28;20675;-78
2022/06/18 03:33:15;;;;;;;2.15;1.50;;;;;;;-145.69;75.87;71523.78;4992578;28;20440;-78
2022/06/18 03:35:44;;;;;;;3.17;1.65;;;;;;;-145.69;75.75;71521.78;4993690;28;20213;-78
2022/06/18 03:38:12;;;;;;;2.88;1.60;;;;;;;-145.69;76.07;71523.78;4993526;28;20292;-77
2022/06/18 03:40:39;;;;;;;2.47;1.60;;;;;;;-145.69;73.74;71507.84;4993213;28;20248;-78
2022/06/18 03:43:06;;;;;;;1.50;1.38;;;;;;;-145.69;74.47;71511.84;4993742;28;20206;-77
2022/06/18 03:45:39;;;;;;;2.42;1.25;;;;;;;-145.69;74.90;71509.84;4993349;28;20252;-77
2022/06/18 03:48:06;;;;;;;1.60;1.33;;;;;;;-145.69;74.56;71505.88;4993344;28;20233;-77
2022/06/18 03:50:33;;;;;;;4.38;1.58;;;;;;;-145.69;74.64;71499.91;4993359;28;20212;-77
2022/06/18 03:53:00;;;;;;;4.35;1.55;;;;;;;-145.69;74.31;71501.88;4993261;28;20202;-77
2022/06/18 03:55:27;;;;;;;1.85;1.60;;;;;;;-145.69;74.91;71503.88;4993559;28;20340;-77
2022/06/18 03:57:54;;;;;;;4.20;1.60;;;;;;;-145.69;74.98;71505.88;4993382;28;20257;-77
2022/06/18 04:00:23;;;;;;;3.45;1.63;;;;;;;-145.69;75.35;71505.88;4992956;28;20197;-77
2022/06/18 04:02:50;;;;;;;2.83;1.70;;;;;;;-145.69;76.40;71493.94;4992927;28;20545;-76
2022/06/18 04:05:16;;;;;;;1.40;1.30;;;;;;;-145.69;76.69;71505.88;4993274;28;20209;-77
2022/06/18 04:07:44;;;;;;;2.95;1.80;;;;;;;-145.69;76.75;71501.88;4992958;28;20212;-77
2022/06/18 04:10:17;;;;;;;2.00;1.63;;;;;;;-145.69;78.53;71505.88;4993121;28;20209;-77
2022/06/18 04:12:45;;;;;;;2.83;1.60;;;;;;;-145.69;77.83;71491.94;4993145;28;20727;-77
2022/06/18 04:15:13;;;;;;;2.75;1.52;;;;;;;-145.69;78.73;71499.91;4992960;28;20653;-77
2022/06/18 04:17:40;;;;;;;2.95;1.67;;;;;;;-145.69;78.61;71489.94;4993123;28;20209;-77
2022/06/18 04:20:09;;;;;;;2.00;1.42;;;;;;;-145.69;77.66;71485.97;4993104;28;20272;-77
2022/06/18 04:22:35;;;;;;;2.75;1.58;;;;;;;-145.69;78.13;71476.03;4993058;28;20318;-78
2022/06/18 04:25:01;;;;;;;2.67;1.75;;;;;;;-145.69;75.87;71460.09;4993309;28;20198;-77
2022/06/18 04:27:28;;;;;;;2.47;1.50;;;;;;;-145.69;77.95;71454.13;4994964;28;20252;-77
2022/06/18 04:29:55;;;;;;;2.60;1.70;;;;;;;-145.69;76.41;71446.16;4996897;28;20341;-77
2022/06/18 04:32:23;;;;;;;1.75;1.40;;;;;;;-145.69;75.92;71428.25;4996665;28;20206;-77
2022/06/18 04:34:49;;;;;;;2.22;1.50;;;;;;;-145.69;80.12;71426.28;4996923;28;20205;-77
2022/06/18 04:37:15;;;;;;;2.72;1.45;;;;;;;-145.69;74.69;71414.34;4996753;28;20205;-77
2022/06/18 04:39:42;;;;;;;2.58;1.65;;;;;;;-145.69;76.45;71402.41;4996754;28;20201;-77
2022/06/18 04:42:08;;;;;;;2.22;1.73;;;;;;;-145.69;78.08;71398.41;4990076;28;20647;-78
2022/06/18 04:44:35;;;;;;;1.70;1.40;;;;;;;-145.69;81.58;71404.38;4990334;28;20256;-78
2022/06/18 04:47:03;;;;;;;1.60;1.48;;;;;;;-145.69;79.63;71398.41;4995951;28;20647;-77
2022/06/18 04:49:29;;;;;;;2.80;1.63;;;;;;;-145.69;77.73;71384.47;4996506;28;20660;-77
2022/06/18 04:51:56;;;;;;;2.38;1.35;;;;;;;-145.69;78.17;71386.47;4996303;28;20202;-77
2022/06/18 04:54:22;;;;;;;3.10;1.50;;;;;;;-145.69;77.25;71362.59;4996583;28;20244;-77
2022/06/18 04:56:48;;;;;;;3.03;1.40;;;;;;;-145.69;77.59;71358.63;4996026;28;20201;-77
2022/06/18 04:59:15;;;;;;;3.72;1.63;;;;;;;-145.69;77.64;71346.69;4996073;28;20735;-77
2022/06/18 05:01:42;;;;;;;3.40;1.25;;;;;;;-145.69;76.63;71338.72;4996026;28;20230;-77
2022/06/18 05:04:10;;;;;;;2.30;1.60;;;;;;;-145.69;74.21;71320.81;4996174;28;20201;-77
2022/06/18 05:06:36;;;;;;;2.00;1.23;;;;;;;-145.69;74.62;71318.81;4996224;28;20212;-77
2022/06/18 05:09:03;;;;;;;4.90;1.52;;;;;;;-145.69;76.20;71304.91;4996245;28;20549;-77
2022/06/18 05:11:29;;;;;;;2.63;1.60;;;;;;;-145.69;74.74;71300.91;4995827;28;20198;-78
2022/06/18 05:13:56;;;;;;;3.75;1.50;;;;;;;-145.69;73.97;71290.97;4995491;28;20248;-78
2022/06/18 05:16:22;;;;;;;2.10;1.40;;;;;;;-145.69;75.26;71275.03;4995740;28;20209;-78
2022/06/18 05:18:49;;;;;;;1.33;1.23;;;;;;;-145.69;73.56;71261.13;4996064;28;20205;-78
2022/06/18 05:21:16;;;;;;;2.72;1.30;;;;;;;-145.69;73.24;71247.19;4995846;28;20794;-78
2022/06/18 05:23:43;;;;;;;1.58;1.20;;;;;;;-145.69;72.63;71243.22;4996120;28;20201;-78
2022/06/18 05:26:14;;;;;;;5.78;1.30;;;;;;;-145.69;72.10;71225.31;4995686;28;20198;-78
2022/06/18 05:28:40;;;;;;;3.45;1.45;;;;;;;-145.69;70.41;71195.47;4995660;28;20691;-78
2022/06/18 05:31:07;;;;;;;1.98;1.40;;;;;;;-145.69;70.72;71167.59;4995383;28;20202;-78
2022/06/18 05:33:33;;;;;;;2.17;1.30;;;;;;;-145.69;69.44;71149.69;4996035;28;20205;-78
2022/06/18 05:36:00;;;;;;;2.47;1.38;;;;;;;-145.69;69.21;71131.78;4995632;28;20604;-78
2022/06/18 05:38:27;;;;;;;2.97;1.58;;;;;;;-145.69;70.31;71117.84;4995432;28;20545;-78
2022/06/18 05:40:54;;;;;;;2.92;1.67;;;;;;;-145.69;67.77;71052.19;4995087;28;20588;-78
2022/06/18 05:43:20;;;;;;;1.90;1.20;;;;;;;-145.69;65.60;70988.53;4995190;28;20209;-78
2022/06/18 05:45:47;;;;;;;2.08;1.25;;;;;;;-145.69;63.73;70902.97;4995697;28;20206;-78
2022/06/18 05:48:14;;;;;;;1.60;1.30;;;;;;;-145.69;60.74;70829.34;4994842;28;20500;-78
2022/06/18 05:50:40;;;;;;;1.33;1.13;;;;;;;-145.69;59.32;70789.56;4994941;28;20205;-78
2022/06/18 05:53:07;;;;;;;1.77;1.35;;;;;;;-145.69;58.00;70731.88;4995465;28;20205;-79
2022/06/18 05:55:34;;;;;;;1.98;1.20;;;;;;;-145.69;58.38;70702.03;4995157;28;20202;-79
2022/06/18 05:58:01;;;;;;;1.95;1.30;;;;;;;-145.69;57.30;70660.25;4995162;28;20215;-78
2022/06/18 06:00:31;;;;;;;2.50;1.45;;;;;;;-145.69;54.96;70578.69;4995096;28;20260;-78
2022/06/18 06:02:58;;;;;;;1.83;1.13;;;;;;;-145.69;53.46;70534.91;4995224;28;20252;-79
2022/06/18 06:05:25;;;;;;;3.78;1.38;;;;;;;-145.69;52.53;70495.13;4995267;28;20204;-79
2022/06/18 06:07:51;;;;;;;1.40;1.00;;;;;;;-145.69;50.63;70419.53;4994993;28;20205;-79
2022/06/18 06:13:09;;;;;;;1.10;1.00;;;;;;;-145.69;49.63;70332.00;4995032;28;20212;-78
2022/06/18 06:15:36;;;;;;;2.72;1.40;;;;;;;-145.69;50.33;70335.97;4994957;28;20288;-79
2022/06/18 06:18:03;;;;;;;1.52;1.02;;;;;;;-145.69;51.67;70363.81;4995012;28;20595;-77
2022/06/18 06:20:32;;;;;;;2.13;1.17;;;;;;;-145.69;50.33;70339.94;4994801;28;20612;-77
2022/06/18 06:22:59;;;;;;;1.10;1.00;;;;;;;-145.69;50.39;70335.97;4994664;28;20316;-77
2022/06/18 06:25:25;;;;;;;1.45;0.90;;;;;;;-145.69;52.32;70379.72;4994928;28;20201;-77
2022/06/18 06:27:52;;;;;;;4.07;1.35;;;;;;;-145.69;51.06;70345.91;4994560;28;20201;-77
2022/06/18 06:30:20;;;;;;;3.42;1.05;;;;;;;-145.69;50.21;70314.09;4994477;28;20256;-77
2022/06/18 06:32:47;;;;;;;2.03;1.02;;;;;;;-145.69;49.46;70326.03;4994415;28;20576;-77
2022/06/18 06:35:14;;;;;;;1.55;1.02;;;;;;;-145.69;48.92;70292.19;4993904;28;20244;-77
2022/06/18 06:37:41;;;;;;;1.15;1.00;;;;;;;-145.69;48.79;70264.34;4994744;28;20202;-77
2022/06/18 06:40:08;;;;;;;4.13;1.10;;;;;;;-145.69;48.90;70276.28;4994540;28;20201;-77
2022/06/18 06:42:41;;;;;;;1.15;1.05;;;;;;;-145.69;49.67;70288.22;4994533;28;20638;-77
2022/06/18 06:45:12;;;;;;;1.48;1.00;;;;;;;-145.69;48.38;70244.47;4994096;28;20198;-77
2022/06/18 06:47:40;;;;;;;5.95;1.13;;;;;;;-145.69;48.16;70204.69;4994125;28;20774;-76
2022/06/18 06:50:07;;;;;;;1.42;1.20;;;;;;;-145.69;46.03;70176.81;4993585;28;20718;-77
2022/06/18 06:52:34;;;;;;;3.80;1.20;;;;;;;-145.69;47.62;70184.78;4994434;28;20205;-77
2022/06/18 06:57:43;;;;;;;1.92;1.20;;;;;;;-145.69;45.11;70141.03;4993025;28;20827;-77
2022/06/18 07:00:10;;;;;;;1.60;1.10;;;;;;;-145.69;45.85;70133.06;4993996;28;20237;-76
2022/06/18 07:02:37;;;;;;;1.55;1.20;;;;;;;-145.69;45.04;70145.00;4993880;28;20233;-77
2022/06/18 07:05:06;;;;;;;3.67;1.35;;;;;;;-145.69;44.27;70133.06;4993610;28;20259;-77
2022/06/18 07:07:32;;;;;;;1.52;1.40;;;;;;;-145.69;43.83;70129.09;4993611;28;20201;-77
2022/06/18 07:09:59;;;;;;;2.15;1.30;;;;;;;-145.69;44.17;70141.03;4993625;28;20210;-77
2022/06/18 07:12:25;;;;;;;1.70;1.35;;;;;;;-145.69;41.24;70160.91;4994109;28;20267;-76
2022/06/18 07:14:51;;;;;;;2.65;1.60;;;;;;;-145.69;38.33;70176.81;4993706;28;20205;-78
2022/06/18 07:17:19;;;;;;;2.92;1.60;;;;;;;-145.69;35.87;70178.81;4994191;28;20205;-78
2022/06/18 07:19:46;;;;;;;2.38;1.55;;;;;;;-145.69;43.92;70170.84;4993940;28;20264;-78
2022/06/18 07:22:14;;;;;;;2.13;1.50;;;;;;;-145.69;36.47;70188.75;4993801;28;20259;-78
2022/06/18 07:24:41;;;;;;;5.53;2.05;;;;;;;-145.69;39.82;70230.53;4993171;28;20288;-79
2022/06/18 07:27:08;;;;;;;5.00;2.00;;;;;;;-145.69;44.78;70198.72;4993332;28;20234;-78
2022/06/18 07:29:35;;;;;;;3.03;1.70;;;;;;;-145.69;39.88;70176.81;4993483;28;20260;-78
2022/06/18 07:32:05;;;;;;;3.38;1.52;;;;;;;-145.69;40.65;70147.00;4993843;28;20205;-78
2022/06/18 07:34:32;;;;;;;2.67;1.58;;;;;;;-145.69;39.37;70125.09;4993865;28;20205;-79
2022/06/18 07:36:58;;;;;;;2.53;1.65;;;;;;;-145.69;40.65;70123.13;4993598;28;20240;-78
2022/06/18 07:39:26;;;;;;;4.50;1.52;;;;;;;-145.69;37.49;70137.03;4993632;28;20268;-78
2022/06/18 07:41:54;;;;;;;3.47;1.60;;;;;;;-145.69;36.13;70152.97;4993359;28;20276;-78
2022/06/18 07:44:21;;;;;;;4.18;1.55;;;;;;;-145.69;34.57;70152.97;4993479;28;20652;-78
2022/06/18 07:46:48;;;;;;;2.28;1.35;;;;;;;-145.69;37.65;70131.06;4993317;28;20241;-79
2022/06/18 07:49:15;;;;;;;5.28;1.85;;;;;;;-145.69;35.26;70141.03;4993615;28;20205;-78
2022/06/18 07:51:41;;;;;;;1.67;1.48;;;;;;;-145.69;36.61;70145.00;4993440;28;20296;-79
2022/06/18 07:54:07;;;;;;;3.05;1.38;;;;;;;-145.69;36.52;70093.28;4993460;28;20205;-78
2022/06/18 07:56:35;;;;;;;2.58;1.35;;;;;;;-145.69;36.75;70063.44;4993103;28;20492;-79
2022/06/18 07:59:02;;;;;;;5.47;1.75;;;;;;;-145.69;34.62;70047.53;4993488;28;20205;-79
2022/06/18 08:01:28;;;;;;;2.03;1.40;;;;;;;-145.69;35.06;70041.56;4993473;28;20201;-79
2022/06/18 08:03:55;;;;;;;3.53;1.50;;;;;;;-145.69;34.07;70051.50;4997108;28;20208;-78
2022/06/18 08:06:21;;;;;;;3.92;1.27;;;;;;;-145.69;35.70;70029.63;4997279;28;20534;-78
2022/06/18 08:08:47;;;;;;;2.30;1.23;;;;;;;-145.69;35.86;70003.75;4997354;28;20197;-78
2022/06/18 08:11:16;;;;;;;2.10;1.10;;;;;;;-145.69;36.61;70005.75;4997045;28;20201;-78
2022/06/18 08:13:44;;;;;;;2.00;1.23;;;;;;;-145.69;33.54;70025.66;4996780;28;20259;-78
2022/06/18 08:16:13;;;;;;;2.25;1.30;;;;;;;-145.69;34.49;69993.81;4997230;28;20205;-77
2022/06/18 08:18:40;;;;;;;2.85;1.42;;;;;;;-145.69;35.35;69965.97;4993926;28;20213;-78
2022/06/18 08:21:10;;;;;;;1.70;1.30;;;;;;;-145.69;34.67;70023.66;4996065;28;20676;-77
2022/06/18 08:23:37;;;;;;;1.33;1.15;;;;;;;-145.69;33.44;70013.72;4996337;28;20311;-79
2022/06/18 08:26:05;;;;;;;3.05;1.25;;;;;;;-145.69;33.45;70053.50;4996553;28;20652;-78
2022/06/18 08:28:32;;;;;;;1.63;1.20;;;;;;;-145.69;35.51;70003.75;4996527;28;20623;-76
2022/06/18 08:31:01;;;;;;;2.10;1.23;;;;;;;-145.69;33.57;69965.97;4996866;28;20204;-78
2022/06/18 08:33:29;;;;;;;2.75;1.38;;;;;;;-145.69;33.85;69950.06;4996548;28;20624;-78
2022/06/18 08:35:57;;;;;;;2.63;1.30;;;;;;;-145.69;33.05;69971.94;4996304;28;20498;-78
2022/06/18 08:38:24;;;;;;;2.60;1.20;;;;;;;-145.69;33.77;69938.13;4996555;28;20595;-78
2022/06/18 08:41:06;;;;;;;2.53;1.30;;;;;;;-145.69;33.95;69950.06;4996361;28;20198;-75
2022/06/18 08:44:08;;;;;;;1.60;1.20;;;;;;;-145.69;33.46;69932.16;4996823;28;20233;-78
2022/06/18 08:46:45;;;;;;;1.95;0.95;;;;;;;-145.69;33.79;69922.22;4996356;28;20263;-76
2022/06/18 08:49:45;;;;;;;2.38;1.08;;;;;;;-145.69;31.80;69946.09;4996553;28;20259;-76
2022/06/18 08:52:26;;;;;;;2.28;1.00;;;;;;;-145.69;34.29;69950.06;4994163;28;20260;-76
2022/06/18 08:55:01;;;;;;;1.95;1.10;;;;;;;-145.69;34.19;69938.13;4996207;28;20247;-76
2022/06/18 08:57:34;;;;;;;3.03;1.05;;;;;;;-145.69;32.21;69944.09;4996536;28;20252;-76
2022/06/18 09:00:13;;;;;;;1.38;0.90;;;;;;;-145.69;33.21;69936.13;4996129;28;20236;-76
2022/06/18 09:02:48;;;;;;;1.58;1.10;;;;;;;-145.69;36.32;69902.31;4995927;28;20569;-77
2022/06/18 09:05:23;;;;;;;3.50;1.00;;;;;;;-145.69;33.11;69924.19;4995977;28;20291;-77
2022/06/18 09:08:14;;;;;;;2.90;1.30;;;;;;;-145.69;34.25;69894.38;4996321;28;20201;-77
2022/06/18 09:10:54;;;;;;;4.93;1.25;;;;;;;-145.69;32.92;69902.31;4996313;28;20255;-77
2022/06/18 09:13:25;;;;;;;5.93;1.33;;;;;;;-145.69;33.21;69888.41;4994758;28;20263;-77
2022/06/18 09:15:57;;;;;;;2.17;1.35;;;;;;;-145.69;32.00;69870.50;4995863;28;20205;-77
2022/06/18 09:18:30;;;;;;;2.17;1.15;;;;;;;-145.69;32.55;69860.53;4996093;28;20540;-76
2022/06/18 09:21:00;;;;;;;4.50;1.60;;;;;;;-145.69;32.98;69846.63;4995443;28;20275;-77
2022/06/18 09:23:29;;;;;;;3.53;1.40;;;;;;;-145.69;34.36;69832.69;4995877;28;20233;-76
2022/06/18 09:25:58;;;;;;;4.72;1.70;;;;;;;-145.69;33.26;69834.69;4995802;28;20205;-77
2022/06/18 09:28:27;;;;;;;5.30;1.30;;;;;;;-145.69;35.87;69810.81;4995592;28;20696;-77
2022/06/18 09:30:59;;;;;;;7.00;1.70;;;;;;;-145.69;32.80;69846.63;4995779;28;20296;-77
2022/06/18 09:33:33;;;;;;;6.18;1.50;;;;;;;-145.69;34.33;69834.69;4996052;28;20216;-76
2022/06/18 09:36:03;;;;;;;10.45;1.90;;;;;;;-145.69;34.72;69842.66;4995563;28;20274;-77
2022/06/18 09:38:35;;;;;;;10.15;1.80;;;;;;;-145.69;38.60;69818.78;4995530;28;20292;-78
2022/06/18 09:41:08;;;;;;;6.63;2.10;;;;;;;-145.69;35.18;69846.63;4995198;28;20202;-76
2022/06/18 09:43:42;;;;;;;7.65;2.05;;;;;;;-145.69;33.08;69858.56;4995033;28;20218;-77
2022/06/18 09:46:15;;;;;;;6.03;1.60;;;;;;;-145.69;36.08;69842.66;4995037;28;20201;-77
2022/06/18 09:48:43;;;;;;;9.15;1.88;;;;;;;-145.69;37.42;69806.84;4994618;28;20264;-78
2022/06/18 09:51:18;;;;;;;5.07;1.95;;;;;;;-145.69;32.64;69830.72;4994677;28;20271;-77
2022/06/18 09:53:45;;;;;;;7.40;1.67;;;;;;;-145.69;31.48;69832.69;4995213;28;20609;-77
2022/06/18 09:56:15;;;;;;;8.73;1.67;;;;;;;-145.69;33.18;69810.81;4995089;28;20668;-78
2022/06/18 09:58:47;;;;;;;7.82;1.83;;;;;;;-145.69;32.39;69804.84;4994918;28;20209;-77
2022/06/18 10:01:17;;;;;;;5.95;1.52;;;;;;;-145.69;33.30;69794.91;4995087;28;20224;-77
2022/06/18 10:09:21;;;;;;;9.38;1.80;;;;;;;-145.69;31.55;69792.91;4994987;28;20490;-77
2022/06/18 10:11:47;;;;;;;4.97;2.10;;;;;;;-145.69;32.43;69773.03;4994897;28;20206;-77
2022/06/18 10:14:18;;;;;;;5.78;1.83;;;;;;;-145.69;33.83;69745.19;4994712;28;20217;-77
2022/06/18 10:16:53;;;;;;;7.35;2.05;;;;;;;-145.69;32.95;69741.19;4994945;28;20197;-76
2022/06/18 10:19:32;;;;;;;5.95;1.85;;;;;;;-145.69;34.73;69727.28;4994481;28;20292;-78
2022/06/18 10:22:09;;;;;;;8.43;1.80;;;;;;;-145.69;32.10;69715.34;4994705;28;20244;-77
2022/06/18 10:24:40;;;;;;;8.40;2.08;;;;;;;-145.69;32.25;69741.19;4993662;28;20262;-78
2022/06/18 10:27:12;;;;;;;10.70;2.28;;;;;;;-145.69;33.22;69743.19;4994551;28;20681;-77
2022/06/18 10:29:50;;;;;;;11.27;2.25;;;;;;;-145.69;33.05;69721.31;4994105;28;20604;-77
2022/06/18 10:32:31;;;;;;;11.18;2.30;;;;;;;-145.69;37.77;69697.44;4994607;28;20260;-79
2022/06/18 10:35:15;;;;;;;11.50;2.15;;;;;;;-145.69;33.64;69707.38;4994397;28;20296;-77
2022/06/18 10:37:53;;;;;;;9.27;2.30;;;;;;;-145.69;32.58;69703.41;4994495;28;20202;-77
2022/06/18 10:40:34;;;;;;;11.77;2.45;;;;;;;-145.69;34.22;69695.47;4994026;28;20228;-78
2022/06/18 10:43:23;;;;;;;11.00;2.00;;;;;;;-145.69;31.14;69697.44;4993959;28;20607;-77
2022/06/18 10:45:56;;;;;;;9.68;2.25;;;;;;;-145.69;30.08;69707.38;4993782;28;20674;-76
2022/06/18 10:48:25;;;;;;;18.15;2.97;;;;;;;-145.69;34.75;69683.53;4993957;28;20233;-76
2022/06/18 10:50:55;;;;;;;14.00;2.13;;;;;;;-145.69;35.50;69669.59;4994219;28;20205;-76
2022/06/18 10:53:25;;;;;;;17.08;1.88;;;;;;;-145.69;31.63;69651.69;4993950;28;20201;-76
2022/06/18 10:55:59;;;;;;;10.57;2.17;;;;;;;-145.69;33.68;69657.66;4993811;28;20202;-77
2022/06/18 10:58:26;;;;;;;8.88;2.10;;;;;;;-145.69;31.72;69633.78;4993494;28;20970;-78
2022/06/18 11:00:58;;;;;;;9.23;1.92;;;;;;;-145.69;31.99;69633.78;4994050;28;20213;-76
2022/06/18 11:03:29;;;;;;;15.25;2.72;;;;;;;-145.69;31.09;69633.78;4993143;28;20221;-76
2022/06/18 11:05:58;;;;;;;10.02;1.90;;;;;;;-145.69;36.68;69596.00;4993496;28;20210;-76
2022/06/18 11:08:29;;;;;;;11.02;2.25;;;;;;;-145.69;31.06;69621.88;4993109;28;20448;-76
2022/06/18 11:11:01;;;;;;;11.82;2.05;;;;;;;-145.69;30.47;69615.91;4994001;28;20593;-76
2022/06/18 11:13:32;;;;;;;7.30;1.80;;;;;;;-145.69;32.07;69627.84;4993625;28;20271;-77
2022/06/18 11:16:06;;;;;;;8.55;1.90;;;;;;;-145.69;32.10;69588.06;4993864;28;20220;-76
2022/06/18 11:18:32;;;;;;;8.48;2.05;;;;;;;-145.69;29.63;69584.06;4993676;28;20255;-76
2022/06/18 11:21:06;;;;;;;9.38;2.30;;;;;;;-145.69;31.63;69564.19;4993806;28;20252;-76
2022/06/18 11:23:35;;;;;;;11.40;2.28;;;;;;;-145.69;31.96;69556.22;4993265;28;20225;-76
2022/06/18 11:26:04;;;;;;;15.50;2.38;;;;;;;-145.69;29.92;69562.19;4993640;28;20205;-77
2022/06/18 11:28:39;;;;;;;14.70;2.42;;;;;;;-145.69;31.82;69592.03;4993361;28;20201;-76
2022/06/18 11:31:09;;;;;;;10.55;2.70;;;;;;;-145.69;32.12;69572.13;4993369;28;20208;-76
2022/06/18 11:33:38;;;;;;;11.15;2.13;;;;;;;-145.69;32.71;69560.22;4993789;28;20201;-77
2022/06/18 11:36:14;;;;;;;12.85;2.08;;;;;;;-145.69;32.15;69532.34;4994335;28;20204;-77
2022/06/18 11:38:51;;;;;;;10.48;2.30;;;;;;;-145.69;33.64;69508.50;4992889;28;20502;-77
2022/06/18 11:41:22;;;;;;;12.52;2.50;;;;;;;-145.69;34.21;69456.78;4993099;28;20201;-77
2022/06/18 11:43:56;;;;;;;13.38;2.03;;;;;;;-145.69;31.60;69450.81;4993143;28;20584;-77